createdAt,value
2022-09-26T00:02:01.657Z,17.10
2022-09-26T00:07:06.532Z,16.23
2022-09-26T00:12:11.164Z,15.62
2022-09-26T00:17:15.619Z,15.11
2022-09-26T00:22:19.832Z,14.66
2022-09-26T00:27:24.996Z,15.34
2022-09-26T00:32:28.627Z,17.86
2022-09-26T00:37:32.841Z,18.41
2022-09-26T00:42:36.279Z,16.94
2022-09-26T00:47:58.386Z,15.98
2022-09-26T00:53:07.255Z,15.31
2022-09-26T00:58:35.645Z,14.79
2022-09-26T01:03:45.376Z,14.35
2022-09-26T01:09:00.767Z,15.04
2022-09-26T01:14:09.539Z,17.60
2022-09-26T01:19:39.636Z,18.03
2022-09-26T01:24:53.583Z,16.47
2022-09-26T01:30:10.119Z,15.55
2022-09-26T01:35:57.655Z,14.89
2022-09-26T01:41:29.827Z,14.39
2022-09-26T01:47:12.534Z,15.23
2022-09-26T01:52:38.055Z,17.90
2022-09-26T01:57:55.087Z,17.93
2022-09-26T02:03:01.883Z,16.46
2022-09-26T02:08:11.954Z,15.60
2022-09-26T02:13:35.567Z,14.95
2022-09-26T02:18:45.664Z,14.39
2022-09-26T02:23:51.441Z,13.92
2022-09-26T02:28:54.393Z,14.56
2022-09-26T02:33:57.386Z,16.99
2022-09-26T02:39:02.079Z,17.58
2022-09-26T02:45:03.500Z,16.12
2022-09-26T02:50:09.353Z,15.19
2022-09-26T02:55:24.681Z,14.64
2022-09-26T03:00:36.654Z,14.23
2022-09-26T03:05:43.256Z,14.96
2022-09-26T03:10:48.491Z,17.56
2022-09-26T03:15:55.526Z,18.24
2022-09-26T03:21:01.650Z,16.73
2022-09-26T03:26:10.225Z,15.81
2022-09-26T03:31:14.173Z,15.20
2022-09-26T03:36:28.610Z,14.71
2022-09-26T03:41:31.885Z,15.38
2022-09-26T03:47:07.581Z,18.08
2022-09-26T03:52:14.976Z,18.31
2022-09-26T03:57:19.886Z,16.89
2022-09-26T04:02:34.186Z,16.01
2022-09-26T04:07:47.422Z,15.40
2022-09-26T04:12:50.330Z,14.92
2022-09-26T04:17:55.301Z,15.47
2022-09-26T04:22:59.399Z,17.84
2022-09-26T04:28:02.913Z,18.37
2022-09-26T04:33:06.186Z,16.95
2022-09-26T04:38:12.336Z,16.05
2022-09-26T04:43:15.376Z,15.46
2022-09-26T04:48:18.672Z,14.99
2022-09-26T04:53:39.574Z,15.80
2022-09-26T04:58:49.266Z,18.36
2022-09-26T05:03:53.567Z,18.53
2022-09-26T05:08:57.790Z,17.14
2022-09-26T05:14:15.042Z,16.27
2022-09-26T05:19:18.212Z,15.73
2022-09-26T05:24:58.670Z,15.25
2022-09-26T05:30:01.645Z,16.07
2022-09-26T05:35:06.497Z,18.63
2022-09-26T05:40:35.063Z,18.86
2022-09-26T05:45:38.685Z,17.36
2022-09-26T05:50:44.190Z,16.55
2022-09-26T05:55:51.179Z,15.97
2022-09-26T06:01:08.302Z,15.50
2022-09-26T06:06:21.999Z,16.14
2022-09-26T06:11:32.540Z,18.54
2022-09-26T06:16:35.661Z,19.03
2022-09-26T06:21:40.281Z,17.68
2022-09-26T06:26:47.751Z,16.86
2022-09-26T06:31:51.958Z,16.31
2022-09-26T06:37:15.067Z,15.88
2022-09-26T06:42:18.026Z,16.49
2022-09-26T06:47:49.332Z,19.09
2022-09-26T06:53:09.297Z,19.59
2022-09-26T06:58:12.249Z,18.23
2022-09-26T07:03:32.888Z,17.42
2022-09-26T07:09:02.219Z,16.89
2022-09-26T07:14:25.042Z,16.48
2022-09-26T07:19:34.404Z,17.14
2022-09-26T07:24:39.806Z,19.52
2022-09-26T07:29:42.833Z,20.07
2022-09-26T07:34:48.198Z,18.75
2022-09-26T07:39:54.729Z,17.99
2022-09-26T07:50:23.119Z,17.15
2022-09-26T07:56:05.302Z,17.92
2022-09-26T08:01:38.892Z,20.47
2022-09-26T08:07:12.648Z,20.53
2022-09-26T08:12:27.089Z,19.17
2022-09-26T08:17:41.628Z,18.40
2022-09-26T08:22:44.871Z,17.92
2022-09-26T08:27:50.636Z,18.45
2022-09-26T08:32:59.174Z,20.69
2022-09-26T08:38:04.084Z,20.56
2022-09-26T08:43:49.866Z,19.40
2022-09-26T08:49:24.201Z,18.63
2022-09-26T08:54:47.139Z,17.99
2022-09-26T08:59:52.974Z,18.50
2022-09-26T09:05:09.056Z,20.66
2022-09-26T09:10:20.114Z,20.76
2022-09-26T09:15:52.986Z,19.34
2022-09-26T09:21:23.313Z,18.44
2022-09-26T09:32:25.829Z,18.52
2022-09-26T09:37:51.256Z,21.04
2022-09-26T09:43:26.639Z,21.06
2022-09-26T09:48:30.234Z,19.50
2022-09-26T09:53:42.304Z,18.67
2022-09-26T09:59:08.632Z,18.04
2022-09-26T10:05:01.766Z,18.84
2022-09-26T10:10:10.549Z,21.30
2022-09-26T10:15:44.824Z,20.96
2022-09-26T10:21:17.936Z,19.45
2022-09-26T10:26:34.632Z,18.66
2022-09-26T10:31:42.629Z,18.08
2022-09-26T10:36:56.139Z,18.74
2022-09-26T10:42:01.141Z,21.12
2022-09-26T10:47:08.446Z,21.21
2022-09-26T10:52:34.741Z,19.74
2022-09-26T10:57:46.151Z,18.96
2022-09-26T11:02:52.583Z,18.40
2022-09-26T11:07:57.148Z,18.99
2022-09-26T11:13:22.313Z,21.48
2022-09-26T11:18:53.494Z,21.18
2022-09-26T11:24:11.921Z,19.81
2022-09-26T11:29:24.227Z,19.07
2022-09-26T11:34:45.316Z,18.58
2022-09-26T11:39:58.618Z,19.18
2022-09-26T11:45:10.099Z,21.43
2022-09-26T11:51:00.087Z,21.60
2022-09-26T11:56:50.471Z,20.30
2022-09-26T12:02:03.869Z,19.57
2022-09-26T12:07:43.800Z,19.15
2022-09-26T12:12:57.738Z,18.84
2022-09-26T12:18:15.341Z,19.61
2022-09-26T12:23:37.902Z,21.94
2022-09-26T12:29:05.240Z,21.86
2022-09-26T12:34:31.545Z,20.64
2022-09-26T12:39:46.298Z,19.96
2022-09-26T12:45:06.572Z,19.55
2022-09-26T12:50:31.282Z,19.21
2022-09-26T12:56:07.011Z,18.89
2022-09-26T13:01:37.570Z,19.92
2022-09-26T13:07:08.059Z,21.64
2022-09-26T13:12:48.029Z,20.54
2022-09-26T13:17:57.956Z,19.85
2022-09-26T13:23:31.725Z,19.49
2022-09-26T13:29:13.304Z,19.22
2022-09-26T13:34:58.105Z,18.95
2022-09-26T13:40:39.548Z,19.98
2022-09-26T13:45:50.802Z,22.31
2022-09-26T13:51:06.648Z,21.60
2022-09-26T13:56:49.625Z,20.74
2022-09-26T14:02:18.095Z,20.22
2022-09-26T14:08:02.306Z,19.74
2022-09-26T14:13:21.911Z,19.41
2022-09-26T14:19:04.969Z,19.17
2022-09-26T14:24:25.926Z,18.93
2022-09-26T14:29:29.026Z,19.27
2022-09-26T14:34:36.066Z,21.92
2022-09-26T14:39:43.895Z,23.04
2022-09-26T14:45:06.110Z,22.14
2022-09-26T14:50:18.414Z,21.57
2022-09-26T14:55:21.718Z,21.21
2022-09-26T15:00:40.638Z,20.90
2022-09-26T15:05:45.300Z,20.66
2022-09-26T15:10:49.110Z,20.44
2022-09-26T15:16:03.549Z,20.23
2022-09-26T15:21:35.440Z,20.05
2022-09-26T15:26:38.459Z,19.94
2022-09-26T15:31:43.831Z,19.84
2022-09-26T15:36:56.601Z,21.36
2022-09-26T15:42:20.392Z,22.62
2022-09-26T15:47:40.580Z,21.55
2022-09-26T15:52:49.702Z,20.85
2022-09-26T15:57:57.905Z,20.32
2022-09-26T16:08:43.000Z,19.27
2022-09-26T16:13:50.724Z,18.86
2022-09-26T16:18:59.931Z,19.40
2022-09-26T16:24:34.740Z,21.61
2022-09-26T16:29:40.480Z,21.84
2022-09-26T16:34:45.877Z,20.46
2022-09-26T16:40:00.223Z,19.58
2022-09-26T16:45:08.209Z,18.94
2022-09-26T16:50:30.582Z,18.42
2022-09-26T16:55:38.702Z,19.12
2022-09-26T17:01:01.199Z,21.58
2022-09-26T17:06:06.935Z,21.37
2022-09-26T17:11:18.191Z,19.99
2022-09-26T17:16:23.845Z,19.14
2022-09-26T17:21:29.399Z,18.55
2022-09-26T17:26:35.781Z,18.07
2022-09-26T17:31:41.010Z,18.70
2022-09-26T17:36:49.727Z,21.14
2022-09-26T17:41:59.507Z,21.62
2022-09-26T17:47:07.015Z,20.12
2022-09-26T17:52:38.380Z,19.18
2022-09-26T17:57:43.524Z,18.49
2022-09-26T18:02:54.166Z,18.96
2022-09-26T18:08:04.992Z,21.36
2022-09-26T18:13:16.195Z,21.33
2022-09-26T18:18:25.045Z,19.82
2022-09-26T18:23:43.311Z,18.93
2022-09-26T18:28:48.707Z,18.28
2022-09-26T18:33:58.885Z,18.83
2022-09-26T18:39:01.958Z,21.33
2022-09-26T18:44:05.742Z,21.00
2022-09-26T18:49:12.186Z,19.55
2022-09-26T18:54:17.439Z,18.69
2022-09-26T18:59:20.567Z,18.05
2022-09-26T19:04:23.576Z,17.55
2022-09-26T19:09:32.233Z,18.24
2022-09-26T19:14:35.665Z,20.65
2022-09-26T19:19:38.704Z,20.86
2022-09-26T19:24:46.846Z,19.35
2022-09-26T19:29:58.875Z,18.44
2022-09-26T19:35:08.208Z,17.78
2022-09-26T19:40:51.032Z,17.24
2022-09-26T19:46:22.915Z,18.16
2022-09-26T19:51:59.591Z,20.53
2022-09-26T19:57:30.591Z,19.69
2022-09-26T20:02:54.254Z,18.34
2022-09-26T20:07:58.231Z,17.57
2022-09-26T20:13:10.165Z,16.99
2022-09-26T20:24:14.067Z,20.11
2022-09-26T20:29:27.354Z,19.41
2022-09-26T20:34:47.798Z,18.04
2022-09-26T20:40:26.076Z,17.17
2022-09-26T20:45:39.776Z,16.56
2022-09-26T20:50:58.939Z,17.13
2022-09-26T20:56:31.921Z,19.58
2022-09-26T21:01:42.379Z,19.38
2022-09-26T21:07:06.403Z,17.95
2022-09-26T21:12:21.833Z,17.08
2022-09-26T21:17:30.348Z,16.47
2022-09-26T21:22:37.748Z,16.01
2022-09-26T21:27:42.126Z,16.70
2022-09-26T21:32:53.383Z,19.18
2022-09-26T21:37:59.752Z,19.44
2022-09-26T21:43:11.881Z,17.92
2022-09-26T21:48:18.666Z,16.96
2022-09-26T21:53:29.225Z,16.29
2022-09-26T21:58:38.874Z,15.74
2022-09-26T22:03:42.779Z,15.25
2022-09-26T22:08:47.482Z,15.88
2022-09-26T22:13:51.873Z,18.36
2022-09-26T22:18:56.142Z,18.87
2022-09-26T22:24:00.711Z,17.40
2022-09-26T22:29:05.993Z,16.44
2022-09-26T22:34:12.521Z,15.74
2022-09-26T22:39:16.472Z,15.18
2022-09-26T22:44:21.090Z,14.71
2022-09-26T22:49:27.517Z,15.39
2022-09-26T22:54:30.987Z,18.04
2022-09-26T22:59:35.000Z,18.10
2022-09-26T23:04:49.096Z,16.59
2022-09-26T23:09:53.308Z,15.68
2022-09-26T23:14:58.661Z,15.08
2022-09-26T23:20:02.545Z,14.58
2022-09-26T23:25:08.536Z,14.20
2022-09-26T23:30:14.062Z,14.99
2022-09-26T23:35:17.582Z,17.99
2022-09-26T23:40:21.560Z,18.43
2022-09-26T23:45:27.439Z,16.81
2022-09-26T23:50:32.592Z,15.85
2022-09-26T23:55:36.935Z,15.20
